Time;durP1;ratioP1;P1;durP2;ratioP2;P2;SDS_P1;SDS_P2;PMS_P1;PMS_P2;Temp;Humidity;BMP_temperature;BMP_pressure;BME280_temperature;BME280_humidity;BME280_pressure;Samples;Min_cycle;Max_cycle;Signal;HPM_P1;HPM_P2
2022/08/12 00:44:41;;;;;;;7.75;3.78;;;;;;;17.56;56.99;101779.38;5075168;28;20492;-45
2022/08/12 00:47:08;;;;;;;6.82;3.53;;;;;;;17.56;56.62;101776.78;5074900;28;20036;-45
2022/08/12 00:49:34;;;;;;;5.32;2.97;;;;;;;17.52;57.17;101775.00;5075159;28;20350;-47
2022/08/12 00:52:05;;;;;;;4.97;3.33;;;;;;;17.57;56.68;101777.66;5074171;28;20801;-50
2022/08/12 00:54:32;;;;;;;7.50;3.35;;;;;;;17.60;56.84;101781.19;5075177;28;20062;-46
2022/08/12 00:57:00;;;;;;;;;;;;;;;17.67;54.88;101778.69;5075285;28;20468;-46
2022/08/12 00:59:26;;;;;;;6.68;3.55;;;;;;;17.59;57.21;101786.38;5074436;28;20309;-46
2022/08/12 01:01:53;;;;;;;5.63;3.33;;;;;;;17.61;56.48;101780.34;5074540;28;20467;-50
2022/08/12 01:12:36;;;;;;;8.27;3.30;;;;;;;17.38;58.19;101769.56;5075099;28;20395;-47
2022/08/12 01:15:04;;;;;;;7.32;3.60;;;;;;;17.35;57.94;101773.81;5073704;28;20032;-45
2022/08/12 01:17:30;;;;;;;5.30;3.42;;;;;;;17.34;58.30;101778.19;5074624;28;20383;-45
2022/08/12 01:19:58;;;;;;;5.60;3.33;;;;;;;17.33;58.13;101776.41;5074085;28;20020;-46
2022/08/12 01:22:44;;;;;;;5.93;3.30;;;;;;;17.27;58.01;101777.19;5074445;28;20119;-46
2022/08/12 01:25:15;;;;;;;6.75;3.80;;;;;;;17.21;58.95;101770.97;5074555;28;20047;-47
2022/08/12 01:27:41;;;;;;;5.30;3.33;;;;;;;17.30;57.89;101772.88;5074037;28;20068;-49
2022/08/12 01:30:09;;;;;;;7.47;3.50;;;;;;;17.23;58.66;101771.91;5074266;28;20028;-46
2022/08/12 01:32:38;;;;;;;6.25;3.15;;;;;;;17.19;58.72;101768.38;5074521;28;20029;-48
2022/08/12 01:35:11;;;;;;;8.35;3.65;;;;;;;17.17;58.92;101771.78;5073569;28;20029;-46
2022/08/12 01:37:45;;;;;;;7.70;3.65;;;;;;;17.08;59.46;101770.78;5074490;28;20059;-47
2022/08/12 01:40:15;;;;;;;8.70;3.72;;;;;;;17.00;60.06;101769.75;5074313;28;20032;-45
2022/08/12 01:42:47;;;;;;;6.18;3.90;;;;;;;17.02;59.72;101775.88;5073524;28;20032;-45
2022/08/12 01:45:16;;;;;;;6.18;3.75;;;;;;;16.97;60.55;101777.53;5073692;28;20125;-47
2022/08/12 01:47:57;;;;;;;7.13;3.55;;;;;;;16.93;60.43;101770.53;5073981;28;20059;-49
2022/08/12 01:50:35;;;;;;;6.63;4.15;;;;;;;16.85;61.66;101772.94;5073727;28;20020;-47
2022/08/12 01:53:10;;;;;;;6.47;3.90;;;;;;;16.98;60.14;101767.97;5074049;28;20032;-48
2022/08/12 01:55:39;;;;;;;6.70;4.00;;;;;;;16.89;60.72;101768.69;5073117;28;20056;-45
2022/08/12 01:58:29;;;;;;;8.07;4.30;;;;;;;16.85;60.24;101767.75;5073702;28;20115;-45
2022/08/12 02:01:03;;;;;;;7.38;4.22;;;;;;;16.79;60.78;101772.84;5073978;28;20051;-46
2022/08/12 02:13:20;;;;;;;6.88;4.10;;;;;;;16.69;61.14;101765.69;5073799;28;20472;-47
2022/08/12 02:16:30;;;;;;;7.27;4.47;;;;;;;16.65;61.01;101764.75;5073614;28;20024;-47
2022/08/12 02:19:09;;;;;;;8.88;4.60;;;;;;;16.61;62.50;101761.22;5050019;28;20047;-47
2022/08/12 02:21:46;;;;;;;7.68;4.22;;;;;;;16.53;62.27;101767.13;5073403;28;20105;-48
2022/08/12 02:24:18;;;;;;;7.20;4.68;;;;;;;16.53;62.88;101772.34;5072667;28;20471;-45
2022/08/12 02:26:46;;;;;;;7.43;4.50;;;;;;;16.57;63.60;101761.13;5072982;28;20379;-46
2022/08/12 02:29:12;;;;;;;8.07;4.35;;;;;;;16.54;63.45;101769.75;5073368;28;20029;-47
2022/08/12 02:31:38;;;;;;;8.32;5.20;;;;;;;16.34;64.10;101758.94;5072150;28;20032;-46
2022/08/12 02:34:05;;;;;;;8.40;4.88;;;;;;;16.24;64.74;101759.59;5073405;28;20029;-45
2022/08/12 02:36:33;;;;;;;9.68;5.00;;;;;;;16.23;64.70;101755.25;5072880;28;20031;-45
2022/08/12 02:38:59;;;;;;;9.48;5.25;;;;;;;16.17;65.04;101760.34;5072590;28;20086;-45
2022/08/12 02:41:25;;;;;;;9.37;5.93;;;;;;;16.22;65.25;101753.50;5073270;28;20082;-46
2022/08/12 02:43:58;;;;;;;9.52;5.63;;;;;;;16.02;65.57;101751.34;5072633;28;20040;-48
2022/08/12 02:46:31;;;;;;;9.70;5.50;;;;;;;16.09;65.26;101755.84;5072493;28;20032;-46
2022/08/12 02:49:02;;;;;;;9.98;6.07;;;;;;;16.03;65.82;101760.91;5073141;28;20020;-48
2022/08/12 02:51:33;;;;;;;9.00;5.90;;;;;;;15.96;66.30;101761.63;5072297;28;20499;-46
2022/08/12 02:54:04;;;;;;;8.32;6.00;;;;;;;16.00;66.54;101758.25;5072819;28;20456;-45
2022/08/12 02:56:30;;;;;;;9.50;5.88;;;;;;;15.89;66.82;101757.13;5072880;28;20104;-47
2022/08/12 02:58:56;;;;;;;8.60;6.38;;;;;;;15.91;66.89;101758.03;5071818;28;20384;-45
2022/08/12 03:01:32;;;;;;;11.33;6.57;;;;;;;15.87;67.36;101756.19;5073006;28;20086;-50
2022/08/12 03:04:01;;;;;;;8.95;6.55;;;;;;;15.84;66.97;101750.94;5072741;28;20032;-46
2022/08/12 03:06:36;;;;;;;9.00;6.55;;;;;;;15.90;66.69;101756.28;5071937;28;20028;-45
2022/08/12 03:09:02;;;;;;;9.40;6.60;;;;;;;15.89;66.74;101757.13;5072529;28;20396;-45
2022/08/12 03:11:38;;;;;;;10.85;6.28;;;;;;;15.92;66.47;101749.38;5072704;28;20384;-45
2022/08/12 03:14:09;;;;;;;9.27;6.10;;;;;;;15.89;67.23;101746.72;5071944;28;20028;-50
2022/08/12 03:16:35;;;;;;;11.05;7.30;;;;;;;15.94;67.42;101748.56;5072840;28;20095;-51
2022/08/12 03:19:02;;;;;;;9.50;6.20;;;;;;;15.92;67.20;101752.88;5072520;28;20109;-51
2022/08/12 03:21:31;;;;;;;8.07;6.20;;;;;;;15.88;67.51;101747.56;5071888;28;20029;-52
2022/08/12 03:23:58;;;;;;;7.07;5.97;;;;;;;15.84;67.93;101744.03;5072486;28;20032;-47
2022/08/12 03:26:26;;;;;;;8.45;6.43;;;;;;;15.72;68.84;101741.97;5074190;28;20032;-44
2022/08/12 03:28:53;;;;;;;7.43;5.82;;;;;;;15.54;69.64;101741.56;5076377;28;20379;-49
2022/08/12 03:31:36;;;;;;;10.50;6.38;;;;;;;15.60;68.92;101741.72;5076745;28;20021;-45
2022/08/12 03:34:08;;;;;;;9.60;6.13;;;;;;;15.52;69.95;101743.25;5075601;28;20024;-45
2022/08/12 03:36:36;;;;;;;8.32;6.10;;;;;;;15.43;70.42;101739.59;5076885;28;20025;-46
2022/08/12 03:42:16;;;;;;;8.95;6.68;;;;;;;15.29;70.91;101738.41;5013511;28;20507;-46
2022/08/12 04:01:42;;;;;;;8.55;6.68;;;;;;;15.02;72.76;101741.19;5075611;28;20375;-46
2022/08/12 04:04:09;;;;;;;10.43;7.10;;;;;;;14.97;72.35;101735.88;5075784;28;20025;-45
2022/08/12 04:06:40;;;;;;;10.07;7.10;;;;;;;14.99;72.30;101747.19;5075968;28;20032;-46
2022/08/12 04:09:06;;;;;;;10.60;7.20;;;;;;;14.95;72.60;101745.31;5075191;28;20024;-47
2022/08/12 04:14:21;;;;;;;12.15;7.90;;;;;;;14.87;73.41;101750.31;5075779;28;20056;-47
2022/08/12 04:16:47;;;;;;;15.32;7.78;;;;;;;14.80;73.68;101745.81;5074951;28;20470;-45
2022/08/12 04:19:14;;;;;;;10.07;7.43;;;;;;;14.87;73.61;101749.44;5075670;28;20099;-46
2022/08/12 04:21:40;;;;;;;9.23;6.90;;;;;;;14.85;74.06;101758.88;5075620;28;20086;-47
2022/08/12 04:24:05;;;;;;;8.73;7.32;;;;;;;14.81;73.97;101753.63;5074660;28;20483;-45
2022/08/12 04:26:31;;;;;;;13.10;7.78;;;;;;;14.79;74.11;101747.50;5075705;28;20017;-45
2022/08/12 04:28:57;;;;;;;11.00;7.30;;;;;;;14.85;74.53;101758.88;5075852;28;20017;-45
2022/08/12 04:31:34;;;;;;;10.43;7.72;;;;;;;14.88;74.15;101752.06;5074942;28;20025;-46
2022/08/12 04:34:00;;;;;;;10.82;7.68;;;;;;;14.76;74.89;101750.03;5075308;28;20497;-46
2022/08/12 04:36:26;;;;;;;14.80;8.57;;;;;;;14.72;75.12;101749.91;5075273;28;20127;-45
2022/08/12 04:38:53;;;;;;;12.50;7.90;;;;;;;14.75;75.67;101752.59;5074872;28;20331;-48
2022/08/12 04:41:19;;;;;;;9.70;7.47;;;;;;;14.86;75.46;101755.47;5075284;28;20120;-45
2022/08/12 04:43:45;;;;;;;14.55;8.40;;;;;;;14.91;75.85;101754.75;5075324;28;20024;-45
2022/08/12 04:46:11;;;;;;;9.43;8.40;;;;;;;14.92;75.64;101753.03;5074401;28;20021;-45
2022/08/12 04:48:36;;;;;;;13.32;8.30;;;;;;;14.90;75.92;101746.91;5075316;28;20031;-47
2022/08/12 04:51:02;;;;;;;11.95;8.18;;;;;;;14.91;76.34;101754.75;5074381;28;20099;-48
2022/08/12 04:53:28;;;;;;;10.95;8.27;;;;;;;15.02;76.14;101749.84;5075222;28;20023;-45
2022/08/12 04:55:53;;;;;;;12.20;8.07;;;;;;;15.06;76.00;101749.06;5075353;28;20047;-46
2022/08/12 04:58:19;;;;;;;12.20;8.90;;;;;;;15.12;76.08;101748.38;5074199;28;20040;-46
2022/08/12 05:00:44;;;;;;;11.95;8.77;;;;;;;15.16;75.97;101750.19;5074986;28;20029;-45
2022/08/12 05:03:09;;;;;;;13.80;8.55;;;;;;;15.14;76.14;101746.66;5074756;28;20024;-45
2022/08/12 05:05:36;;;;;;;14.23;9.20;;;;;;;15.15;76.28;101749.28;5074166;28;20024;-47
2022/08/12 05:08:05;;;;;;;12.10;8.70;;;;;;;15.17;76.65;101754.56;5074841;28;20025;-48
2022/08/12 05:10:30;;;;;;;15.15;8.50;;;;;;;15.24;76.83;101752.97;5074931;28;20028;-46
2022/08/12 05:13:00;;;;;;;15.27;9.07;;;;;;;15.31;76.53;101747.09;5074179;28;20078;-47
2022/08/12 05:15:25;;;;;;;13.18;8.88;;;;;;;15.35;76.56;101750.63;5074554;28;20031;-46
2022/08/12 05:17:50;;;;;;;15.05;10.20;;;;;;;15.40;76.64;101755.13;5074675;28;20024;-47
2022/08/12 05:20:18;;;;;;;13.07;8.88;;;;;;;15.47;76.55;101746.63;5073614;28;20112;-48
2022/08/12 05:22:44;;;;;;;13.88;10.25;;;;;;;15.54;76.16;101738.97;5074859;28;20031;-47
2022/08/12 05:25:10;;;;;;;15.45;9.57;;;;;;;15.63;76.10;101745.28;5074676;28;20024;-45
2022/08/12 05:27:37;;;;;;;14.07;9.40;;;;;;;15.80;75.18;101745.66;5073754;28;20032;-47
2022/08/12 05:30:03;;;;;;;15.13;9.07;;;;;;;15.92;75.31;101754.56;5074417;28;20056;-45
2022/08/12 05:32:28;;;;;;;12.48;10.43;;;;;;;16.01;75.02;101753.91;5074390;28;20064;-45
2022/08/12 05:34:54;;;;;;;14.25;9.73;;;;;;;16.13;74.90;101754.19;5073564;28;20059;-46
2022/08/12 05:37:22;;;;;;;12.45;10.32;;;;;;;16.24;74.47;101757.91;5074154;28;20029;-45
2022/08/12 05:39:48;;;;;;;13.82;10.07;;;;;;;16.27;74.38;101762.28;5074354;28;20032;-45
2022/08/12 05:42:13;;;;;;;12.10;10.35;;;;;;;16.36;74.51;101758.97;5073388;28;20032;-47
2022/08/12 05:44:38;;;;;;;14.77;10.40;;;;;;;16.46;74.37;101766.09;5073912;28;20141;-47
2022/08/12 05:47:05;;;;;;;12.32;10.27;;;;;;;16.55;73.56;101761.13;5073616;28;20171;-48
2022/08/12 05:49:33;;;;;;;12.55;11.02;;;;;;;16.63;73.79;101772.53;5073224;28;20032;-47
2022/08/12 05:51:59;;;;;;;14.23;10.40;;;;;;;16.74;74.05;101767.53;5073946;28;20379;-46
2022/08/12 05:54:24;;;;;;;15.05;11.23;;;;;;;16.79;74.34;101773.69;5073010;28;20032;-46
2022/08/12 05:56:50;;;;;;;15.15;11.60;;;;;;;16.94;72.62;101773.16;5073918;28;20016;-46
2022/08/12 05:59:16;;;;;;;15.13;11.57;;;;;;;16.99;74.24;101769.75;5073718;28;20028;-46
2022/08/12 06:01:41;;;;;;;13.82;11.48;;;;;;;17.09;73.34;101769.06;5072723;28;20021;-45
2022/08/12 06:04:08;;;;;;;13.50;11.38;;;;;;;17.14;73.71;101779.56;5073759;28;20047;-49
2022/08/12 06:06:40;;;;;;;14.17;11.50;;;;;;;17.33;72.21;101776.41;5073743;28;20020;-47
2022/08/12 06:09:08;;;;;;;14.75;12.10;;;;;;;17.38;71.89;101782.56;5072823;28;20028;-45
2022/08/12 06:11:34;;;;;;;14.80;12.55;;;;;;;17.48;72.26;101780.13;5073444;28;20453;-46
2022/08/12 06:13:59;;;;;;;16.23;12.02;;;;;;;17.61;71.79;101782.06;5073501;28;20059;-47
2022/08/12 06:16:25;;;;;;;17.13;13.15;;;;;;;17.66;71.50;101784.75;5072557;28;20021;-46
2022/08/12 06:18:51;;;;;;;17.05;12.07;;;;;;;17.77;71.18;101777.97;5073328;28;20553;-48
2022/08/12 06:21:20;;;;;;;16.27;11.60;;;;;;;17.86;70.21;101779.84;5073294;28;20029;-51
2022/08/12 06:23:46;;;;;;;15.85;12.00;;;;;;;17.96;70.23;101779.16;5072670;28;20052;-48
2022/08/12 06:26:14;;;;;;;16.55;13.02;;;;;;;18.04;69.59;101774.91;5072904;28;20422;-46
2022/08/12 06:28:40;;;;;;;17.48;11.82;;;;;;;18.15;70.22;101780.25;5073093;28;20074;-47
2022/08/12 06:31:05;;;;;;;17.98;12.75;;;;;;;18.22;69.23;101781.22;5072327;28;20024;-47
2022/08/12 06:33:31;;;;;;;13.43;11.85;;;;;;;18.31;69.43;101780.44;5073462;28;20108;-47
2022/08/12 06:35:58;;;;;;;15.98;12.13;;;;;;;18.43;69.29;101775.38;5073195;28;20058;-47
2022/08/12 06:38:25;;;;;;;16.73;12.90;;;;;;;18.58;68.32;101778.16;5072388;28;20035;-47
2022/08/12 06:43:38;;;;;;;14.30;11.83;;;;;;;18.85;66.49;101775.81;5072569;28;20035;-45
2022/08/12 06:46:04;;;;;;;15.70;12.48;;;;;;;18.96;66.85;101771.63;5072837;28;20568;-48
2022/08/12 06:48:30;;;;;;;20.05;12.65;;;;;;;19.14;65.52;101775.28;5072913;28;20082;-46
2022/08/12 06:50:56;;;;;;;15.63;11.75;;;;;;;19.32;64.56;101775.44;5071996;28;20426;-45
2022/08/12 06:53:24;;;;;;;16.50;11.68;;;;;;;19.40;66.60;101772.88;5072820;28;20029;-45
2022/08/12 06:55:50;;;;;;;16.65;11.27;;;;;;;19.48;65.40;101775.53;5072705;28;20028;-44
2022/08/12 06:58:16;;;;;;;17.10;11.13;;;;;;;19.58;65.28;101775.63;5072235;28;20047;-45
2022/08/12 07:00:42;;;;;;;17.27;11.23;;;;;;;19.68;66.47;101771.34;5072102;28;20032;-47
2022/08/12 07:03:08;;;;;;;16.63;10.65;;;;;;;19.80;64.00;101767.06;5072829;28;20020;-46
2022/08/12 07:05:34;;;;;;;17.55;11.48;;;;;;;19.88;65.73;101768.00;5072056;28;20036;-45
2022/08/12 07:08:00;;;;;;;18.10;10.80;;;;;;;19.97;63.10;101775.03;5072464;28;20024;-47
2022/08/12 07:10:26;;;;;;;15.00;10.82;;;;;;;20.09;61.52;101769.88;5072518;28;20031;-45
2022/08/12 07:12:55;;;;;;;14.63;11.02;;;;;;;20.18;61.47;101769.00;5071890;28;20033;-45
2022/08/12 07:15:24;;;;;;;18.48;11.05;;;;;;;20.39;59.56;101770.84;5072692;28;20040;-46
2022/08/12 07:17:58;;;;;;;16.30;11.02;;;;;;;20.49;60.36;101762.16;5072784;28;20027;-45
2022/08/12 07:20:24;;;;;;;16.73;10.80;;;;;;;20.76;58.64;101763.13;5071744;28;20035;-45
2022/08/12 07:22:49;;;;;;;15.48;9.82;;;;;;;20.86;58.57;101771.88;5072718;28;20029;-47
2022/08/12 07:25:30;;;;;;;19.75;11.02;;;;;;;21.01;58.98;101769.28;5072257;28;20207;-51
2022/08/12 07:27:57;;;;;;;17.52;10.80;;;;;;;21.35;56.62;101779.75;5072016;28;20072;-46
2022/08/12 07:30:23;;;;;;;18.40;11.07;;;;;;;21.47;55.66;101772.75;5072351;28;20536;-46
2022/08/12 07:32:50;;;;;;;20.48;10.57;;;;;;;21.53;55.70;101784.09;5071864;28;20040;-44
2022/08/12 07:35:19;;;;;;;19.83;10.00;;;;;;;21.82;55.21;101782.34;5072326;28;20158;-44
2022/08/12 07:37:46;;;;;;;15.63;9.63;;;;;;;21.84;55.93;101783.22;5072463;28;20028;-45
2022/08/12 07:40:12;;;;;;;16.35;10.40;;;;;;;21.96;55.63;101791.09;5071671;28;20025;-45
2022/08/12 07:42:39;;;;;;;15.38;10.45;;;;;;;22.07;55.12;101784.94;5072583;28;20494;-45
2022/08/12 07:45:06;;;;;;;14.93;9.85;;;;;;;22.19;54.50;101787.50;5072009;28;20049;-45
2022/08/12 07:47:33;;;;;;;18.35;10.20;;;;;;;22.27;53.97;101783.09;5071422;28;20391;-47
2022/08/12 07:50:00;;;;;;;19.92;9.98;;;;;;;22.38;53.36;101776.97;5072385;28;20036;-47
2022/08/12 07:52:26;;;;;;;16.15;9.68;;;;;;;22.51;52.94;101781.25;5072107;28;20035;-47
2022/08/12 07:54:51;;;;;;;13.95;9.90;;;;;;;22.62;53.68;101778.56;5071735;28;20033;-47
2022/08/12 07:57:16;;;;;;;13.55;9.90;;;;;;;22.72;53.53;101779.38;5071921;28;20452;-50
2022/08/12 07:59:41;;;;;;;19.10;9.90;;;;;;;23.07;52.90;101791.41;5072379;28;20556;-44
2022/08/12 08:02:08;;;;;;;17.00;9.95;;;;;;;23.13;51.02;101784.34;5071436;28;20078;-46
2022/08/12 08:04:56;;;;;;;15.38;9.95;;;;;;;23.26;51.18;101787.78;5072267;28;20025;-47
2022/08/12 08:07:21;;;;;;;13.55;8.95;;;;;;;23.51;51.57;101792.81;5071291;28;20047;-47
2022/08/12 08:09:47;;;;;;;14.43;9.43;;;;;;;23.62;49.75;101790.09;5071633;28;20111;-50
2022/08/12 08:14:57;;;;;;;14.82;8.95;;;;;;;23.78;48.03;101798.69;5075434;28;20039;-49
2022/08/12 08:17:23;;;;;;;16.35;9.35;;;;;;;23.92;48.70;101788.94;5075402;28;20025;-46
2022/08/12 08:19:51;;;;;;;17.48;8.98;;;;;;;24.06;49.41;101801.09;5076031;28;20056;-48
2022/08/12 08:22:18;;;;;;;13.40;9.40;;;;;;;24.15;48.34;101803.59;5074840;28;20023;-47
2022/08/12 08:24:44;;;;;;;13.00;7.97;;;;;;;24.42;47.88;101798.88;5075882;28;20051;-48
2022/08/12 08:27:09;;;;;;;18.40;7.53;;;;;;;24.59;47.24;101802.16;5075653;28;20475;-48
2022/08/12 08:29:35;;;;;;;14.32;7.20;;;;;;;24.82;46.50;101803.63;5074598;28;20082;-45
2022/08/12 08:32:06;;;;;;;15.48;6.97;;;;;;;24.88;45.72;101798.28;5075755;28;20074;-47
2022/08/12 08:34:34;;;;;;;12.27;6.78;;;;;;;25.15;43.45;101801.34;5075552;28;20029;-45
2022/08/12 08:36:59;;;;;;;14.60;6.60;;;;;;;25.25;45.76;101796.81;5074822;28;20048;-48
2022/08/12 08:39:26;;;;;;;14.65;6.63;;;;;;;25.43;44.33;101800.94;5075359;28;20460;-47
2022/08/12 08:44:44;;;;;;;10.30;6.25;;;;;;;25.74;42.81;101795.94;5050805;28;20602;-46
2022/08/12 08:47:11;;;;;;;17.70;6.30;;;;;;;25.79;42.58;101804.66;5075331;28;20028;-49
2022/08/12 08:49:38;;;;;;;16.95;6.13;;;;;;;26.06;41.15;101796.28;5075215;28;20028;-46
2022/08/12 08:52:08;;;;;;;12.50;5.78;;;;;;;26.06;42.38;101797.13;5074688;28;20086;-46
2022/08/12 08:54:33;;;;;;;9.80;4.95;;;;;;;26.17;41.24;101803.97;5074924;28;20025;-51
2022/08/12 08:57:00;;;;;;;10.85;4.85;;;;;;;26.31;40.75;101801.03;5074890;28;20081;-47
2022/08/12 08:59:26;;;;;;;14.13;5.47;;;;;;;26.43;40.77;101800.75;5074967;28;20044;-50
2022/08/12 09:01:52;;;;;;;9.73;4.53;;;;;;;26.67;39.97;101803.78;5075013;28;20081;-50
2022/08/12 09:04:19;;;;;;;10.45;4.22;;;;;;;26.77;38.72;101797.41;5074439;28;20016;-50
2022/08/12 09:06:46;;;;;;;7.75;4.00;;;;;;;27.01;39.77;101792.44;5074649;28;20028;-46
2022/08/12 09:09:13;;;;;;;10.70;4.88;;;;;;;27.11;37.21;101801.88;5075007;28;20024;-47
2022/08/12 09:14:22;;;;;;;7.00;4.45;;;;;;;27.26;37.73;101793.56;5075261;28;20079;-46
2022/08/12 09:16:49;;;;;;;12.80;4.65;;;;;;;27.38;37.07;101799.44;5074506;28;20052;-50
2022/08/12 09:19:17;;;;;;;8.07;3.63;;;;;;;27.48;36.26;101795.69;5074155;28;20040;-50
2022/08/12 09:21:45;;;;;;;8.98;3.63;;;;;;;27.78;35.41;101801.06;5074470;28;20043;-48
2022/08/12 09:24:10;;;;;;;7.60;3.72;;;;;;;27.78;34.98;101793.13;5073855;28;20025;-51
2022/08/12 09:26:36;;;;;;;10.57;4.68;;;;;;;27.86;33.93;101791.13;5073670;28;20082;-50
2022/08/12 09:29:01;;;;;;;10.50;4.43;;;;;;;28.12;34.82;101796.63;5074619;28;20028;-46
2022/08/12 09:31:29;;;;;;;5.72;3.65;;;;;;;28.35;36.33;101795.94;5074576;28;20032;-48
2022/08/12 09:33:54;;;;;;;;;;;;;;;28.55;37.69;101795.34;5073824;28;20090;-47
2022/08/12 09:36:20;;;;;;;11.93;4.10;;;;;;;28.79;34.99;101788.41;5074273;28;20383;-46
2022/08/12 09:38:45;;;;;;;9.75;4.03;;;;;;;29.14;35.08;101788.16;5074088;28;20430;-46
2022/08/12 09:41:14;;;;;;;12.65;4.28;;;;;;;29.30;34.59;101786.78;5073725;28;20465;-51
2022/08/12 09:46:26;;;;;;;;;;;;;;;29.82;34.87;101786.69;5074018;28;20039;-50
2022/08/12 09:48:51;;;;;;;10.37;3.70;;;;;;;29.82;30.42;101784.03;5073937;28;19912;-48
2022/08/12 09:51:18;;;;;;;8.87;3.30;;;;;;;30.24;30.18;101776.31;5074074;28;20044;-51
2022/08/12 09:53:44;;;;;;;7.53;3.08;;;;;;;30.24;30.26;101773.66;5073512;28;20270;-48
2022/08/12 09:56:11;;;;;;;10.98;3.33;;;;;;;30.76;29.66;101776.09;5073750;28;20074;-46
2022/08/12 09:58:36;;;;;;;6.03;3.40;;;;;;;30.94;29.97;101763.84;5073975;28;20103;-50
2022/08/12 10:01:03;;;;;;;6.60;3.30;;;;;;;31.47;27.94;101773.13;5072887;28;20020;-49
2022/08/12 10:03:30;;;;;;;5.97;3.03;;;;;;;31.74;26.87;101770.19;5073684;28;20448;-50
2022/08/12 10:05:56;;;;;;;;;;;;;;;31.63;28.19;101765.34;5074145;28;20028;-49
2022/08/12 10:08:26;;;;;;;6.22;2.97;;;;;;;32.00;27.41;101763.66;5073093;28;20256;-46
2022/08/12 10:13:40;;;;;;;8.93;3.25;;;;;;;31.98;25.51;101757.53;5073999;28;20613;-49
2022/08/12 10:16:17;;;;;;;8.50;3.13;;;;;;;33.15;26.96;101762.56;5072614;28;20028;-48
2022/08/12 10:19:00;;;;;;;4.88;2.88;;;;;;;34.36;24.07;101756.16;5073550;28;20539;-47
2022/08/12 10:21:35;;;;;;;6.97;3.20;;;;;;;34.96;22.52;101759.88;5072946;28;20055;-51
2022/08/12 10:24:03;;;;;;;8.30;2.95;;;;;;;35.64;21.36;101755.78;5073230;28;20017;-50
2022/08/12 10:31:58;;;;;;;7.82;2.75;;;;;;;36.25;20.12;101750.16;5073756;28;20063;-45
2022/08/12 10:34:24;;;;;;;8.40;3.40;;;;;;;36.45;20.44;101745.31;5072976;28;20032;-45
2022/08/12 10:36:57;;;;;;;4.80;2.77;;;;;;;36.95;20.44;101745.59;5072312;28;20024;-49
2022/08/12 10:39:26;;;;;;;8.05;3.03;;;;;;;36.73;19.15;101745.22;5072846;28;20539;-49
2022/08/12 10:44:36;;;;;;;7.30;2.45;;;;;;;37.14;19.38;101731.75;5072350;28;20548;-46
2022/08/12 10:47:03;;;;;;;6.83;2.63;;;;;;;37.78;18.41;101731.72;5073068;28;20020;-46
2022/08/12 10:49:33;;;;;;;6.30;2.63;;;;;;;37.50;17.71;101720.25;5072691;28;20041;-48
2022/08/12 10:52:02;;;;;;;4.90;2.63;;;;;;;37.66;17.20;101724.53;5073224;28;20021;-50
2022/08/12 10:54:28;;;;;;;8.77;2.60;;;;;;;38.02;17.73;101718.31;5072837;28;20025;-46
2022/08/12 10:56:56;;;;;;;4.82;2.40;;;;;;;38.54;17.09;101710.91;5072391;28;20020;-47
2022/08/12 10:59:23;;;;;;;5.70;2.45;;;;;;;38.37;17.42;101706.78;5072706;28;20100;-50
2022/08/12 11:01:51;;;;;;;5.15;2.45;;;;;;;38.74;17.06;101708.53;5072863;28;20101;-48
2022/08/12 11:04:16;;;;;;;9.75;2.83;;;;;;;38.47;16.78;101700.72;5072151;28;20035;-50
2022/08/12 11:06:46;;;;;;;10.88;3.33;;;;;;;38.58;16.93;101703.44;5072929;28;20375;-47
2022/08/12 11:09:16;;;;;;;8.80;2.67;;;;;;;38.54;16.80;101705.50;5072765;28;20025;-46
2022/08/12 11:11:43;;;;;;;9.20;2.80;;;;;;;38.30;16.29;101700.16;5072107;28;20020;-48
2022/08/12 11:14:08;;;;;;;5.13;2.75;;;;;;;38.13;16.67;101689.75;5072732;28;20460;-48
2022/08/12 11:16:33;;;;;;;5.57;2.73;;;;;;;38.47;16.90;101695.31;5072435;28;20062;-46
2022/08/12 11:18:59;;;;;;;7.97;2.53;;;;;;;38.51;17.37;101692.25;5071919;28;20028;-48
2022/08/12 11:21:24;;;;;;;5.07;2.60;;;;;;;38.70;16.34;101691.72;5072513;28;20028;-48
2022/08/12 11:23:49;;;;;;;7.70;2.50;;;;;;;39.13;16.62;101686.66;5072705;28;20032;-49
2022/08/12 11:26:15;;;;;;;4.93;2.70;;;;;;;39.73;15.95;101683.75;5071926;28;20147;-48
2022/08/12 11:28:40;;;;;;;6.10;2.87;;;;;;;39.82;17.06;101682.97;5072212;28;20036;-47
2022/08/12 11:31:07;;;;;;;6.53;2.70;;;;;;;40.79;16.15;101679.41;5072609;28;20056;-49
2022/08/12 11:33:33;;;;;;;5.75;2.63;;;;;;;40.97;15.24;101680.56;5071573;28;20024;-48
2022/08/12 11:36:06;;;;;;;9.60;2.77;;;;;;;40.69;15.43;101670.38;5072753;28;20078;-49
2022/08/12 11:38:33;;;;;;;5.63;2.45;;;;;;;40.46;15.46;101673.19;5072210;28;20471;-50
2022/08/12 11:40:58;;;;;;;10.50;2.60;;;;;;;40.21;14.90;101677.13;5071743;28;20025;-48
2022/08/12 11:43:24;;;;;;;5.50;2.40;;;;;;;39.89;15.19;101673.41;5072317;28;20028;-50
2022/08/12 11:45:49;;;;;;;5.70;2.70;;;;;;;40.26;15.66;101673.06;5071526;28;20558;-48
2022/08/12 11:48:15;;;;;;;12.20;3.03;;;;;;;40.90;15.59;101663.09;5075442;28;20039;-49
2022/08/12 11:50:42;;;;;;;7.15;2.78;;;;;;;41.15;15.41;101663.69;5076339;28;20032;-49
2022/08/12 11:53:07;;;;;;;10.20;3.13;;;;;;;41.06;15.33;101650.97;5075575;28;20325;-47
2022/08/12 11:55:33;;;;;;;6.67;2.60;;;;;;;41.01;14.58;101651.41;5076203;28;20027;-49
2022/08/12 11:57:58;;;;;;;5.90;2.47;;;;;;;40.12;14.47;101649.06;5076228;28;20055;-49
2022/08/12 12:00:25;;;;;;;6.67;2.70;;;;;;;39.61;15.26;101656.75;5075684;28;20028;-47
2022/08/12 12:02:50;;;;;;;4.40;2.58;;;;;;;39.85;16.42;101650.34;5075961;28;20048;-49
2022/08/12 12:05:15;;;;;;;6.33;3.20;;;;;;;40.48;15.95;101657.72;5076135;28;20055;-46
2022/08/12 12:07:44;;;;;;;6.13;2.63;;;;;;;40.67;16.37;101642.66;5074976;28;20024;-47
2022/08/12 12:10:12;;;;;;;4.55;2.30;;;;;;;41.19;14.01;101639.94;5076036;28;20105;-49
2022/08/12 12:12:38;;;;;;;4.57;2.53;;;;;;;40.91;14.49;101639.66;5075494;28;20483;-49
2022/08/12 12:15:05;;;;;;;6.32;2.72;;;;;;;40.74;14.58;101641.09;5075169;28;20036;-48
2022/08/12 12:17:34;;;;;;;6.90;2.90;;;;;;;41.36;14.17;101633.88;5075832;28;20016;-48
2022/08/12 12:19:59;;;;;;;5.88;2.40;;;;;;;41.36;14.03;101638.41;5075912;28;20028;-46
2022/08/12 12:22:24;;;;;;;8.97;2.83;;;;;;;41.19;13.60;101634.53;5075079;28;20020;-49
2022/08/12 12:24:50;;;;;;;8.90;2.67;;;;;;;41.08;14.34;101621.97;5075564;28;20019;-49
2022/08/12 12:27:21;;;;;;;6.43;2.80;;;;;;;41.08;14.15;101630.09;5075557;28;20089;-48
2022/08/12 12:29:47;;;;;;;8.18;2.53;;;;;;;41.69;13.97;101623.69;5074759;28;20029;-50
2022/08/12 12:32:13;;;;;;;5.37;2.53;;;;;;;41.55;14.26;101627.69;5075639;28;20082;-50
2022/08/12 12:34:38;;;;;;;8.35;2.70;;;;;;;41.62;14.61;101615.28;5075328;28;20112;-49
2022/08/12 12:37:03;;;;;;;8.80;2.47;;;;;;;41.90;13.19;101620.91;5074835;28;20028;-47
2022/08/12 12:39:28;;;;;;;7.53;2.60;;;;;;;42.00;13.41;101615.47;5075521;28;20103;-50
2022/08/12 12:41:54;;;;;;;6.13;2.67;;;;;;;41.99;13.65;101616.50;5075166;28;20450;-48
2022/08/12 12:44:19;;;;;;;5.50;2.67;;;;;;;42.01;14.06;101610.94;5074680;28;20048;-50
2022/08/12 12:46:44;;;;;;;8.63;2.50;;;;;;;42.00;13.64;101611.94;5075158;28;20036;-49
2022/08/12 12:49:10;;;;;;;7.03;2.73;;;;;;;41.68;13.88;101615.72;5074543;28;20037;-49
2022/08/12 12:51:35;;;;;;;8.10;2.50;;;;;;;42.11;13.37;101601.78;5075016;28;20101;-47
2022/08/12 12:54:00;;;;;;;10.07;2.77;;;;;;;42.37;13.72;101603.09;5075186;28;20069;-49
2022/08/12 12:56:25;;;;;;;6.27;2.73;;;;;;;41.85;13.27;101598.84;5074464;28;20039;-44
2022/08/12 12:58:53;;;;;;;6.17;2.70;;;;;;;41.25;13.38;101596.97;5073682;28;20040;-50
2022/08/12 13:01:25;;;;;;;8.02;3.17;;;;;;;41.00;14.37;101589.34;5075113;28;20021;-46
2022/08/12 13:03:57;;;;;;;5.97;2.80;;;;;;;40.67;15.46;101594.00;5074104;28;20025;-50
2022/08/12 13:06:24;;;;;;;7.00;2.55;;;;;;;40.93;14.72;101579.06;5074935;28;20024;-47
2022/08/12 13:08:53;;;;;;;6.93;2.97;;;;;;;41.31;14.67;101579.34;5074623;28;20024;-49
2022/08/12 13:11:20;;;;;;;5.70;2.67;;;;;;;41.36;14.48;101576.19;5074190;28;20116;-49
2022/08/12 13:13:48;;;;;;;5.40;2.72;;;;;;;41.54;14.74;101582.69;5074752;28;20028;-45